sensor_id;sensor_type;location;lat;lon;timestamp;P1;durP1;ratioP1;P2;durP2;ratioP2
60292;SDS011;52402;52.670;6.750;2023-08-17T00:01:43;0.20;;;0.20;;
60292;SDS011;52402;52.670;6.750;2023-08-17T00:04:08;0.30;;;0.30;;
60292;SDS011;52402;52.670;6.750;2023-08-17T00:06:34;0.20;;;0.20;;
60292;SDS011;52402;52.670;6.750;2023-08-17T00:09:00;0.35;;;0.35;;
60292;SDS011;52402;52.670;6.750;2023-08-17T00:11:26;0.20;;;0.20;;
60292;SDS011;52402;52.670;6.750;2023-08-17T00:13:51;0.30;;;0.30;;
60292;SDS011;52402;52.670;6.750;2023-08-17T00:16:17;0.20;;;0.20;;
60292;SDS011;52402;52.670;6.750;2023-08-17T00:18:43;0.30;;;0.30;;
60292;SDS011;52402;52.670;6.750;2023-08-17T00:21:09;0.20;;;0.20;;
60292;SDS011;52402;52.670;6.750;2023-08-17T00:23:34;0.20;;;0.20;;
60292;SDS011;52402;52.670;6.750;2023-08-17T00:26:00;0.20;;;0.20;;
60292;SDS011;52402;52.670;6.750;2023-08-17T00:28:26;0.30;;;0.30;;
60292;SDS011;52402;52.670;6.750;2023-08-17T00:30:52;0.30;;;0.30;;
60292;SDS011;52402;52.670;6.750;2023-08-17T00:33:17;0.30;;;0.30;;
60292;SDS011;52402;52.670;6.750;2023-08-17T00:35:43;0.20;;;0.20;;
60292;SDS011;52402;52.670;6.750;2023-08-17T00:38:10;0.20;;;0.20;;
60292;SDS011;52402;52.670;6.750;2023-08-17T00:40:36;0.30;;;0.30;;
60292;SDS011;52402;52.670;6.750;2023-08-17T00:43:02;0.20;;;0.20;;
60292;SDS011;52402;52.670;6.750;2023-08-17T00:45:28;0.20;;;0.20;;
60292;SDS011;52402;52.670;6.750;2023-08-17T00:47:55;0.20;;;0.20;;
60292;SDS011;52402;52.670;6.750;2023-08-17T00:50:22;0.30;;;0.30;;
60292;SDS011;52402;52.670;6.750;2023-08-17T00:52:50;0.30;;;0.30;;
60292;SDS011;52402;52.670;6.750;2023-08-17T00:55:17;0.20;;;0.20;;
60292;SDS011;52402;52.670;6.750;2023-08-17T00:57:43;0.30;;;0.30;;
60292;SDS011;52402;52.670;6.750;2023-08-17T01:00:10;0.30;;;0.30;;
60292;SDS011;52402;52.670;6.750;2023-08-17T01:02:38;0.22;;;0.22;;
60292;SDS011;52402;52.670;6.750;2023-08-17T01:05:07;0.27;;;0.27;;
60292;SDS011;52402;52.670;6.750;2023-08-17T01:07:33;0.25;;;0.25;;
60292;SDS011;52402;52.670;6.750;2023-08-17T01:09:59;0.30;;;0.30;;
60292;SDS011;52402;52.670;6.750;2023-08-17T01:12:29;0.22;;;0.22;;
60292;SDS011;52402;52.670;6.750;2023-08-17T01:18:17;0.30;;;0.30;;
60292;SDS011;52402;52.670;6.750;2023-08-17T01:22:48;0.30;;;0.30;;
60292;SDS011;52402;52.670;6.750;2023-08-17T01:25:17;0.30;;;0.30;;
60292;SDS011;52402;52.670;6.750;2023-08-17T01:27:44;0.25;;;0.25;;
60292;SDS011;52402;52.670;6.750;2023-08-17T01:30:11;0.20;;;0.20;;
60292;SDS011;52402;52.670;6.750;2023-08-17T01:35:31;0.20;;;0.20;;
60292;SDS011;52402;52.670;6.750;2023-08-17T01:38:04;0.30;;;0.30;;
60292;SDS011;52402;52.670;6.750;2023-08-17T01:40:34;0.30;;;0.30;;
60292;SDS011;52402;52.670;6.750;2023-08-17T01:43:03;0.30;;;0.30;;
60292;SDS011;52402;52.670;6.750;2023-08-17T01:45:29;0.30;;;0.30;;
60292;SDS011;52402;52.670;6.750;2023-08-17T01:47:56;0.30;;;0.30;;
60292;SDS011;52402;52.670;6.750;2023-08-17T01:52:55;0.30;;;0.30;;
60292;SDS011;52402;52.670;6.750;2023-08-17T01:55:21;0.28;;;0.28;;
60292;SDS011;52402;52.670;6.750;2023-08-17T01:57:50;0.20;;;0.20;;
60292;SDS011;52402;52.670;6.750;2023-08-17T02:00:16;0.40;;;0.40;;
60292;SDS011;52402;52.670;6.750;2023-08-17T02:02:42;0.30;;;0.30;;
60292;SDS011;52402;52.670;6.750;2023-08-17T02:05:07;0.20;;;0.20;;
60292;SDS011;52402;52.670;6.750;2023-08-17T02:07:33;0.20;;;0.20;;
60292;SDS011;52402;52.670;6.750;2023-08-17T02:10:00;0.30;;;0.30;;
60292;SDS011;52402;52.670;6.750;2023-08-17T02:12:26;0.20;;;0.20;;
60292;SDS011;52402;52.670;6.750;2023-08-17T02:14:51;0.22;;;0.22;;
60292;SDS011;52402;52.670;6.750;2023-08-17T02:17:18;0.30;;;0.30;;
60292;SDS011;52402;52.670;6.750;2023-08-17T02:19:44;0.22;;;0.22;;
60292;SDS011;52402;52.670;6.750;2023-08-17T02:22:12;0.20;;;0.20;;
60292;SDS011;52402;52.670;6.750;2023-08-17T02:24:38;0.32;;;0.32;;
60292;SDS011;52402;52.670;6.750;2023-08-17T02:27:03;0.30;;;0.30;;
60292;SDS011;52402;52.670;6.750;2023-08-17T02:29:29;0.28;;;0.28;;
60292;SDS011;52402;52.670;6.750;2023-08-17T02:31:55;0.20;;;0.20;;
60292;SDS011;52402;52.670;6.750;2023-08-17T02:34:21;0.30;;;0.30;;
60292;SDS011;52402;52.670;6.750;2023-08-17T02:36:46;0.20;;;0.20;;
60292;SDS011;52402;52.670;6.750;2023-08-17T02:39:12;0.30;;;0.30;;
60292;SDS011;52402;52.670;6.750;2023-08-17T02:41:38;0.30;;;0.30;;
60292;SDS011;52402;52.670;6.750;2023-08-17T02:44:04;0.30;;;0.30;;
60292;SDS011;52402;52.670;6.750;2023-08-17T02:46:30;0.30;;;0.30;;
60292;SDS011;52402;52.670;6.750;2023-08-17T02:48:55;0.20;;;0.20;;
60292;SDS011;52402;52.670;6.750;2023-08-17T02:51:21;0.30;;;0.30;;
60292;SDS011;52402;52.670;6.750;2023-08-17T02:53:46;0.20;;;0.20;;
60292;SDS011;52402;52.670;6.750;2023-08-17T02:56:12;0.20;;;0.20;;
60292;SDS011;52402;52.670;6.750;2023-08-17T02:58:38;0.30;;;0.30;;
60292;SDS011;52402;52.670;6.750;2023-08-17T03:01:06;0.20;;;0.20;;
60292;SDS011;52402;52.670;6.750;2023-08-17T03:03:34;0.20;;;0.20;;
60292;SDS011;52402;52.670;6.750;2023-08-17T03:06:01;0.20;;;0.20;;
60292;SDS011;52402;52.670;6.750;2023-08-17T03:08:27;0.22;;;0.22;;
60292;SDS011;52402;52.670;6.750;2023-08-17T03:10:53;0.20;;;0.20;;
60292;SDS011;52402;52.670;6.750;2023-08-17T03:13:19;0.20;;;0.20;;
60292;SDS011;52402;52.670;6.750;2023-08-17T03:15:44;0.30;;;0.30;;
60292;SDS011;52402;52.670;6.750;2023-08-17T03:18:10;0.20;;;0.20;;
60292;SDS011;52402;52.670;6.750;2023-08-17T03:20:35;0.30;;;0.30;;
60292;SDS011;52402;52.670;6.750;2023-08-17T03:23:01;0.20;;;0.20;;
60292;SDS011;52402;52.670;6.750;2023-08-17T03:25:27;0.20;;;0.20;;
60292;SDS011;52402;52.670;6.750;2023-08-17T03:27:53;0.30;;;0.30;;
60292;SDS011;52402;52.670;6.750;2023-08-17T03:30:18;0.30;;;0.30;;
60292;SDS011;52402;52.670;6.750;2023-08-17T03:32:44;0.30;;;0.30;;
60292;SDS011;52402;52.670;6.750;2023-08-17T03:35:09;0.30;;;0.30;;
60292;SDS011;52402;52.670;6.750;2023-08-17T03:37:35;0.22;;;0.22;;
60292;SDS011;52402;52.670;6.750;2023-08-17T03:40:00;0.30;;;0.30;;
60292;SDS011;52402;52.670;6.750;2023-08-17T03:42:26;0.30;;;0.30;;
60292;SDS011;52402;52.670;6.750;2023-08-17T03:44:52;0.25;;;0.25;;
60292;SDS011;52402;52.670;6.750;2023-08-17T03:47:18;0.30;;;0.30;;
60292;SDS011;52402;52.670;6.750;2023-08-17T03:49:44;0.30;;;0.30;;
60292;SDS011;52402;52.670;6.750;2023-08-17T03:52:10;0.30;;;0.30;;
60292;SDS011;52402;52.670;6.750;2023-08-17T03:54:36;0.20;;;0.20;;
60292;SDS011;52402;52.670;6.750;2023-08-17T03:57:01;0.30;;;0.30;;
60292;SDS011;52402;52.670;6.750;2023-08-17T03:59:27;0.28;;;0.28;;
60292;SDS011;52402;52.670;6.750;2023-08-17T04:01:53;0.30;;;0.30;;
60292;SDS011;52402;52.670;6.750;2023-08-17T04:04:19;0.20;;;0.20;;
60292;SDS011;52402;52.670;6.750;2023-08-17T04:06:44;0.20;;;0.20;;
60292;SDS011;52402;52.670;6.750;2023-08-17T04:09:10;0.20;;;0.20;;
60292;SDS011;52402;52.670;6.750;2023-08-17T04:11:36;0.30;;;0.30;;
60292;SDS011;52402;52.670;6.750;2023-08-17T04:14:02;0.25;;;0.25;;
60292;SDS011;52402;52.670;6.750;2023-08-17T04:16:28;0.30;;;0.30;;
60292;SDS011;52402;52.670;6.750;2023-08-17T04:18:54;0.20;;;0.20;;
60292;SDS011;52402;52.670;6.750;2023-08-17T04:21:20;0.30;;;0.30;;
60292;SDS011;52402;52.670;6.750;2023-08-17T04:23:45;0.20;;;0.20;;
60292;SDS011;52402;52.670;6.750;2023-08-17T04:26:11;0.20;;;0.20;;
60292;SDS011;52402;52.670;6.750;2023-08-17T04:28:37;0.30;;;0.30;;
60292;SDS011;52402;52.670;6.750;2023-08-17T04:31:03;0.25;;;0.25;;
60292;SDS011;52402;52.670;6.750;2023-08-17T04:33:29;0.30;;;0.30;;
60292;SDS011;52402;52.670;6.750;2023-08-17T04:35:55;0.20;;;0.20;;
60292;SDS011;52402;52.670;6.750;2023-08-17T04:38:20;0.20;;;0.20;;
60292;SDS011;52402;52.670;6.750;2023-08-17T04:40:47;0.30;;;0.30;;
60292;SDS011;52402;52.670;6.750;2023-08-17T04:43:12;0.20;;;0.20;;
60292;SDS011;52402;52.670;6.750;2023-08-17T04:45:38;0.30;;;0.30;;
60292;SDS011;52402;52.670;6.750;2023-08-17T04:48:04;0.30;;;0.30;;
60292;SDS011;52402;52.670;6.750;2023-08-17T04:50:31;0.20;;;0.20;;
60292;SDS011;52402;52.670;6.750;2023-08-17T04:52:57;0.20;;;0.20;;
60292;SDS011;52402;52.670;6.750;2023-08-17T04:55:23;0.30;;;0.30;;
60292;SDS011;52402;52.670;6.750;2023-08-17T04:57:48;0.30;;;0.30;;
60292;SDS011;52402;52.670;6.750;2023-08-17T05:00:15;0.30;;;0.30;;
60292;SDS011;52402;52.670;6.750;2023-08-17T05:02:40;0.30;;;0.30;;
60292;SDS011;52402;52.670;6.750;2023-08-17T05:05:07;0.30;;;0.30;;
60292;SDS011;52402;52.670;6.750;2023-08-17T05:07:34;0.22;;;0.22;;
60292;SDS011;52402;52.670;6.750;2023-08-17T05:10:00;0.30;;;0.30;;
60292;SDS011;52402;52.670;6.750;2023-08-17T05:12:26;0.25;;;0.25;;
60292;SDS011;52402;52.670;6.750;2023-08-17T05:14:52;0.20;;;0.20;;
60292;SDS011;52402;52.670;6.750;2023-08-17T05:17:18;0.30;;;0.30;;
60292;SDS011;52402;52.670;6.750;2023-08-17T05:19:43;0.20;;;0.20;;
60292;SDS011;52402;52.670;6.750;2023-08-17T05:22:09;0.30;;;0.30;;
60292;SDS011;52402;52.670;6.750;2023-08-17T05:24:36;0.30;;;0.30;;
60292;SDS011;52402;52.670;6.750;2023-08-17T05:27:02;0.30;;;0.30;;
60292;SDS011;52402;52.670;6.750;2023-08-17T05:29:29;0.20;;;0.20;;
60292;SDS011;52402;52.670;6.750;2023-08-17T05:31:57;0.30;;;0.30;;
60292;SDS011;52402;52.670;6.750;2023-08-17T05:34:23;0.30;;;0.30;;
60292;SDS011;52402;52.670;6.750;2023-08-17T05:36:48;0.30;;;0.30;;
60292;SDS011;52402;52.670;6.750;2023-08-17T05:39:14;0.20;;;0.20;;
60292;SDS011;52402;52.670;6.750;2023-08-17T05:41:40;0.20;;;0.20;;
60292;SDS011;52402;52.670;6.750;2023-08-17T05:44:06;0.28;;;0.28;;
60292;SDS011;52402;52.670;6.750;2023-08-17T05:46:32;0.20;;;0.20;;
60292;SDS011;52402;52.670;6.750;2023-08-17T05:48:58;0.20;;;0.20;;
60292;SDS011;52402;52.670;6.750;2023-08-17T05:51:25;0.28;;;0.28;;
60292;SDS011;52402;52.670;6.750;2023-08-17T05:53:51;0.30;;;0.30;;
60292;SDS011;52402;52.670;6.750;2023-08-17T05:56:16;0.20;;;0.20;;
60292;SDS011;52402;52.670;6.750;2023-08-17T05:58:42;0.20;;;0.20;;
60292;SDS011;52402;52.670;6.750;2023-08-17T06:01:08;0.28;;;0.28;;
60292;SDS011;52402;52.670;6.750;2023-08-17T06:03:35;0.20;;;0.20;;
60292;SDS011;52402;52.670;6.750;2023-08-17T06:06:02;0.30;;;0.30;;
60292;SDS011;52402;52.670;6.750;2023-08-17T06:08:28;0.30;;;0.30;;
60292;SDS011;52402;52.670;6.750;2023-08-17T06:10:54;0.30;;;0.30;;
60292;SDS011;52402;52.670;6.750;2023-08-17T06:13:20;0.30;;;0.30;;
60292;SDS011;52402;52.670;6.750;2023-08-17T06:15:45;0.30;;;0.30;;
60292;SDS011;52402;52.670;6.750;2023-08-17T06:18:11;0.30;;;0.30;;
60292;SDS011;52402;52.670;6.750;2023-08-17T06:20:37;0.30;;;0.30;;
60292;SDS011;52402;52.670;6.750;2023-08-17T06:23:03;0.30;;;0.30;;
60292;SDS011;52402;52.670;6.750;2023-08-17T06:25:28;0.30;;;0.30;;
60292;SDS011;52402;52.670;6.750;2023-08-17T06:27:54;0.30;;;0.30;;
60292;SDS011;52402;52.670;6.750;2023-08-17T06:30:20;0.32;;;0.32;;
60292;SDS011;52402;52.670;6.750;2023-08-17T06:32:46;0.20;;;0.20;;
60292;SDS011;52402;52.670;6.750;2023-08-17T06:35:12;0.30;;;0.30;;
60292;SDS011;52402;52.670;6.750;2023-08-17T06:37:37;0.30;;;0.30;;
60292;SDS011;52402;52.670;6.750;2023-08-17T06:40:03;0.20;;;0.20;;
60292;SDS011;52402;52.670;6.750;2023-08-17T06:42:30;0.30;;;0.30;;
60292;SDS011;52402;52.670;6.750;2023-08-17T06:44:56;0.30;;;0.30;;
60292;SDS011;52402;52.670;6.750;2023-08-17T06:47:22;0.20;;;0.20;;
60292;SDS011;52402;52.670;6.750;2023-08-17T06:49:47;0.30;;;0.30;;
60292;SDS011;52402;52.670;6.750;2023-08-17T06:52:13;0.30;;;0.30;;
60292;SDS011;52402;52.670;6.750;2023-08-17T06:54:38;0.30;;;0.30;;
60292;SDS011;52402;52.670;6.750;2023-08-17T06:57:06;0.30;;;0.30;;
60292;SDS011;52402;52.670;6.750;2023-08-17T06:59:31;0.30;;;0.30;;
60292;SDS011;52402;52.670;6.750;2023-08-17T07:01:58;0.38;;;0.38;;
60292;SDS011;52402;52.670;6.750;2023-08-17T07:04:24;0.30;;;0.30;;
60292;SDS011;52402;52.670;6.750;2023-08-17T07:06:50;0.30;;;0.30;;
60292;SDS011;52402;52.670;6.750;2023-08-17T07:09:16;0.30;;;0.30;;
60292;SDS011;52402;52.670;6.750;2023-08-17T07:11:42;0.30;;;0.30;;
60292;SDS011;52402;52.670;6.750;2023-08-17T07:14:07;0.22;;;0.22;;
60292;SDS011;52402;52.670;6.750;2023-08-17T07:16:33;0.30;;;0.30;;
60292;SDS011;52402;52.670;6.750;2023-08-17T07:18:59;0.20;;;0.20;;
60292;SDS011;52402;52.670;6.750;2023-08-17T07:21:25;0.30;;;0.30;;
60292;SDS011;52402;52.670;6.750;2023-08-17T07:23:53;0.30;;;0.30;;
60292;SDS011;52402;52.670;6.750;2023-08-17T07:26:19;0.30;;;0.30;;
60292;SDS011;52402;52.670;6.750;2023-08-17T07:28:45;0.20;;;0.20;;
60292;SDS011;52402;52.670;6.750;2023-08-17T07:31:12;0.30;;;0.30;;
60292;SDS011;52402;52.670;6.750;2023-08-17T07:33:38;0.30;;;0.30;;
60292;SDS011;52402;52.670;6.750;2023-08-17T07:36:04;0.30;;;0.30;;
60292;SDS011;52402;52.670;6.750;2023-08-17T07:38:29;0.20;;;0.20;;
60292;SDS011;52402;52.670;6.750;2023-08-17T07:40:55;0.20;;;0.20;;
60292;SDS011;52402;52.670;6.750;2023-08-17T07:43:21;0.30;;;0.30;;
60292;SDS011;52402;52.670;6.750;2023-08-17T07:45:52;0.28;;;0.28;;
60292;SDS011;52402;52.670;6.750;2023-08-17T07:48:24;0.30;;;0.30;;
60292;SDS011;52402;52.670;6.750;2023-08-17T07:50:53;0.30;;;0.30;;
60292;SDS011;52402;52.670;6.750;2023-08-17T07:53:19;0.30;;;0.30;;
60292;SDS011;52402;52.670;6.750;2023-08-17T07:55:44;0.30;;;0.30;;
60292;SDS011;52402;52.670;6.750;2023-08-17T07:58:10;0.30;;;0.30;;
60292;SDS011;52402;52.670;6.750;2023-08-17T08:00:36;0.20;;;0.20;;
60292;SDS011;52402;52.670;6.750;2023-08-17T08:03:02;0.30;;;0.30;;
60292;SDS011;52402;52.670;6.750;2023-08-17T08:05:28;0.20;;;0.20;;
60292;SDS011;52402;52.670;6.750;2023-08-17T08:07:54;0.35;;;0.35;;
60292;SDS011;52402;52.670;6.750;2023-08-17T08:10:19;0.30;;;0.30;;
60292;SDS011;52402;52.670;6.750;2023-08-17T08:12:45;0.30;;;0.30;;
60292;SDS011;52402;52.670;6.750;2023-08-17T08:15:11;0.30;;;0.30;;
60292;SDS011;52402;52.670;6.750;2023-08-17T08:17:36;0.30;;;0.30;;
60292;SDS011;52402;52.670;6.750;2023-08-17T08:20:02;0.30;;;0.30;;
60292;SDS011;52402;52.670;6.750;2023-08-17T08:22:29;0.30;;;0.30;;
60292;SDS011;52402;52.670;6.750;2023-08-17T08:24:54;0.30;;;0.30;;
60292;SDS011;52402;52.670;6.750;2023-08-17T08:27:20;0.30;;;0.30;;
60292;SDS011;52402;52.670;6.750;2023-08-17T08:29:46;0.30;;;0.30;;
60292;SDS011;52402;52.670;6.750;2023-08-17T08:32:11;0.20;;;0.20;;
60292;SDS011;52402;52.670;6.750;2023-08-17T08:34:37;0.30;;;0.30;;
60292;SDS011;52402;52.670;6.750;2023-08-17T08:37:03;0.20;;;0.20;;
60292;SDS011;52402;52.670;6.750;2023-08-17T08:39:28;0.30;;;0.30;;
60292;SDS011;52402;52.670;6.750;2023-08-17T08:41:54;0.30;;;0.30;;
60292;SDS011;52402;52.670;6.750;2023-08-17T08:44:20;0.30;;;0.30;;
60292;SDS011;52402;52.670;6.750;2023-08-17T08:46:47;0.25;;;0.25;;
60292;SDS011;52402;52.670;6.750;2023-08-17T08:49:13;0.35;;;0.35;;
60292;SDS011;52402;52.670;6.750;2023-08-17T08:51:48;0.30;;;0.30;;
60292;SDS011;52402;52.670;6.750;2023-08-17T08:54:18;0.20;;;0.20;;
60292;SDS011;52402;52.670;6.750;2023-08-17T08:56:51;0.30;;;0.30;;
60292;SDS011;52402;52.670;6.750;2023-08-17T08:59:23;0.38;;;0.38;;
60292;SDS011;52402;52.670;6.750;2023-08-17T09:01:51;0.30;;;0.30;;
60292;SDS011;52402;52.670;6.750;2023-08-17T09:04:17;0.30;;;0.30;;
60292;SDS011;52402;52.670;6.750;2023-08-17T09:06:44;0.32;;;0.32;;
60292;SDS011;52402;52.670;6.750;2023-08-17T09:09:10;0.32;;;0.32;;
60292;SDS011;52402;52.670;6.750;2023-08-17T09:11:39;0.30;;;0.30;;
60292;SDS011;52402;52.670;6.750;2023-08-17T09:14:06;0.40;;;0.40;;
60292;SDS011;52402;52.670;6.750;2023-08-17T09:16:31;0.30;;;0.30;;
60292;SDS011;52402;52.670;6.750;2023-08-17T09:18:57;0.30;;;0.30;;
60292;SDS011;52402;52.670;6.750;2023-08-17T09:21:24;0.30;;;0.30;;
60292;SDS011;52402;52.670;6.750;2023-08-17T09:23:50;0.30;;;0.30;;
60292;SDS011;52402;52.670;6.750;2023-08-17T09:26:17;0.30;;;0.30;;
60292;SDS011;52402;52.670;6.750;2023-08-17T09:28:45;0.30;;;0.30;;
60292;SDS011;52402;52.670;6.750;2023-08-17T09:31:10;0.30;;;0.30;;
60292;SDS011;52402;52.670;6.750;2023-08-17T09:33:36;0.30;;;0.30;;
60292;SDS011;52402;52.670;6.750;2023-08-17T09:36:02;0.30;;;0.30;;
60292;SDS011;52402;52.670;6.750;2023-08-17T09:38:28;0.30;;;0.30;;
60292;SDS011;52402;52.670;6.750;2023-08-17T09:40:54;0.30;;;0.30;;
60292;SDS011;52402;52.670;6.750;2023-08-17T09:43:20;0.40;;;0.40;;
60292;SDS011;52402;52.670;6.750;2023-08-17T09:45:46;0.40;;;0.40;;
60292;SDS011;52402;52.670;6.750;2023-08-17T09:48:18;0.40;;;0.40;;
60292;SDS011;52402;52.670;6.750;2023-08-17T09:50:45;0.30;;;0.30;;
60292;SDS011;52402;52.670;6.750;2023-08-17T09:53:15;0.40;;;0.40;;
60292;SDS011;52402;52.670;6.750;2023-08-17T09:55:42;0.32;;;0.32;;
60292;SDS011;52402;52.670;6.750;2023-08-17T09:58:08;0.40;;;0.40;;
60292;SDS011;52402;52.670;6.750;2023-08-17T10:00:34;0.40;;;0.40;;
60292;SDS011;52402;52.670;6.750;2023-08-17T10:03:02;0.30;;;0.30;;
60292;SDS011;52402;52.670;6.750;2023-08-17T10:05:32;0.40;;;0.40;;
60292;SDS011;52402;52.670;6.750;2023-08-17T10:08:03;0.30;;;0.30;;
60292;SDS011;52402;52.670;6.750;2023-08-17T10:10:30;0.30;;;0.30;;
60292;SDS011;52402;52.670;6.750;2023-08-17T10:13:01;0.38;;;0.38;;
60292;SDS011;52402;52.670;6.750;2023-08-17T10:15:31;0.32;;;0.32;;
60292;SDS011;52402;52.670;6.750;2023-08-17T10:18:02;0.50;;;0.50;;
60292;SDS011;52402;52.670;6.750;2023-08-17T10:20:32;0.30;;;0.30;;
60292;SDS011;52402;52.670;6.750;2023-08-17T10:23:22;0.30;;;0.30;;
60292;SDS011;52402;52.670;6.750;2023-08-17T10:25:47;0.40;;;0.40;;
60292;SDS011;52402;52.670;6.750;2023-08-17T10:28:14;0.40;;;0.40;;
60292;SDS011;52402;52.670;6.750;2023-08-17T10:30:41;0.30;;;0.30;;
60292;SDS011;52402;52.670;6.750;2023-08-17T10:33:07;0.32;;;0.32;;
60292;SDS011;52402;52.670;6.750;2023-08-17T10:35:35;0.40;;;0.40;;
60292;SDS011;52402;52.670;6.750;2023-08-17T10:38:02;0.40;;;0.40;;
60292;SDS011;52402;52.670;6.750;2023-08-17T10:40:33;0.30;;;0.30;;
60292;SDS011;52402;52.670;6.750;2023-08-17T10:43:00;0.30;;;0.30;;
60292;SDS011;52402;52.670;6.750;2023-08-17T10:45:30;0.40;;;0.40;;
60292;SDS011;52402;52.670;6.750;2023-08-17T10:50:25;0.30;;;0.30;;
60292;SDS011;52402;52.670;6.750;2023-08-17T10:52:53;0.35;;;0.35;;
60292;SDS011;52402;52.670;6.750;2023-08-17T10:55:41;0.30;;;0.30;;
60292;SDS011;52402;52.670;6.750;2023-08-17T10:58:06;0.40;;;0.40;;
60292;SDS011;52402;52.670;6.750;2023-08-17T11:00:39;0.30;;;0.30;;
60292;SDS011;52402;52.670;6.750;2023-08-17T11:03:10;0.40;;;0.40;;
60292;SDS011;52402;52.670;6.750;2023-08-17T11:05:50;0.40;;;0.40;;
60292;SDS011;52402;52.670;6.750;2023-08-17T11:08:27;0.43;;;0.43;;
60292;SDS011;52402;52.670;6.750;2023-08-17T11:11:15;0.40;;;0.40;;
60292;SDS011;52402;52.670;6.750;2023-08-17T11:13:44;0.32;;;0.32;;
60292;SDS011;52402;52.670;6.750;2023-08-17T11:16:11;0.35;;;0.35;;
60292;SDS011;52402;52.670;6.750;2023-08-17T11:18:38;0.40;;;0.40;;
60292;SDS011;52402;52.670;6.750;2023-08-17T11:21:06;0.40;;;0.40;;
60292;SDS011;52402;52.670;6.750;2023-08-17T11:23:35;0.30;;;0.30;;
60292;SDS011;52402;52.670;6.750;2023-08-17T11:26:02;0.30;;;0.30;;
60292;SDS011;52402;52.670;6.750;2023-08-17T11:28:31;0.40;;;0.40;;
60292;SDS011;52402;52.670;6.750;2023-08-17T11:31:07;0.40;;;0.40;;
60292;SDS011;52402;52.670;6.750;2023-08-17T11:33:34;0.38;;;0.38;;
60292;SDS011;52402;52.670;6.750;2023-08-17T11:36:02;0.30;;;0.30;;
60292;SDS011;52402;52.670;6.750;2023-08-17T11:38:32;0.40;;;0.40;;
60292;SDS011;52402;52.670;6.750;2023-08-17T11:40:59;0.40;;;0.40;;
60292;SDS011;52402;52.670;6.750;2023-08-17T11:43:25;0.40;;;0.40;;
60292;SDS011;52402;52.670;6.750;2023-08-17T11:45:54;0.50;;;0.50;;
60292;SDS011;52402;52.670;6.750;2023-08-17T11:48:20;0.40;;;0.40;;
60292;SDS011;52402;52.670;6.750;2023-08-17T11:50:46;0.40;;;0.40;;
60292;SDS011;52402;52.670;6.750;2023-08-17T11:53:11;0.30;;;0.30;;
60292;SDS011;52402;52.670;6.750;2023-08-17T11:55:37;0.40;;;0.40;;
60292;SDS011;52402;52.670;6.750;2023-08-17T11:58:05;0.47;;;0.47;;
60292;SDS011;52402;52.670;6.750;2023-08-17T12:00:36;0.50;;;0.50;;
60292;SDS011;52402;52.670;6.750;2023-08-17T12:03:06;0.40;;;0.40;;
60292;SDS011;52402;52.670;6.750;2023-08-17T12:05:32;0.40;;;0.40;;
60292;SDS011;52402;52.670;6.750;2023-08-17T12:07:58;0.40;;;0.40;;
60292;SDS011;52402;52.670;6.750;2023-08-17T12:10:29;0.40;;;0.40;;
60292;SDS011;52402;52.670;6.750;2023-08-17T12:13:00;0.40;;;0.40;;
60292;SDS011;52402;52.670;6.750;2023-08-17T12:15:35;0.40;;;0.40;;
60292;SDS011;52402;52.670;6.750;2023-08-17T12:18:03;0.38;;;0.38;;
60292;SDS011;52402;52.670;6.750;2023-08-17T12:20:29;0.40;;;0.40;;
60292;SDS011;52402;52.670;6.750;2023-08-17T12:23:03;0.40;;;0.40;;
60292;SDS011;52402;52.670;6.750;2023-08-17T12:25:29;0.43;;;0.43;;
60292;SDS011;52402;52.670;6.750;2023-08-17T12:27:57;0.40;;;0.40;;
60292;SDS011;52402;52.670;6.750;2023-08-17T12:30:25;0.40;;;0.40;;
60292;SDS011;52402;52.670;6.750;2023-08-17T12:32:56;0.50;;;0.50;;
60292;SDS011;52402;52.670;6.750;2023-08-17T12:35:22;0.45;;;0.45;;
60292;SDS011;52402;52.670;6.750;2023-08-17T12:37:49;0.40;;;0.40;;
60292;SDS011;52402;52.670;6.750;2023-08-17T12:40:17;0.47;;;0.47;;
60292;SDS011;52402;52.670;6.750;2023-08-17T12:42:43;0.40;;;0.40;;
60292;SDS011;52402;52.670;6.750;2023-08-17T12:45:09;0.40;;;0.40;;
60292;SDS011;52402;52.670;6.750;2023-08-17T12:47:35;0.38;;;0.38;;
60292;SDS011;52402;52.670;6.750;2023-08-17T12:50:00;0.40;;;0.40;;
60292;SDS011;52402;52.670;6.750;2023-08-17T12:52:28;0.30;;;0.30;;
60292;SDS011;52402;52.670;6.750;2023-08-17T12:54:54;0.40;;;0.40;;
60292;SDS011;52402;52.670;6.750;2023-08-17T12:57:20;0.40;;;0.40;;
60292;SDS011;52402;52.670;6.750;2023-08-17T12:59:45;0.40;;;0.40;;
60292;SDS011;52402;52.670;6.750;2023-08-17T13:02:11;0.50;;;0.50;;
60292;SDS011;52402;52.670;6.750;2023-08-17T13:04:37;0.40;;;0.40;;
60292;SDS011;52402;52.670;6.750;2023-08-17T13:07:15;0.40;;;0.40;;
60292;SDS011;52402;52.670;6.750;2023-08-17T13:09:41;0.50;;;0.50;;
60292;SDS011;52402;52.670;6.750;2023-08-17T13:12:07;0.40;;;0.40;;
60292;SDS011;52402;52.670;6.750;2023-08-17T13:14:32;0.40;;;0.40;;
60292;SDS011;52402;52.670;6.750;2023-08-17T13:16:58;0.50;;;0.50;;
60292;SDS011;52402;52.670;6.750;2023-08-17T13:19:24;0.50;;;0.50;;
60292;SDS011;52402;52.670;6.750;2023-08-17T13:21:49;0.40;;;0.40;;
60292;SDS011;52402;52.670;6.750;2023-08-17T13:24:15;0.40;;;0.40;;
60292;SDS011;52402;52.670;6.750;2023-08-17T13:26:41;0.50;;;0.50;;
60292;SDS011;52402;52.670;6.750;2023-08-17T13:29:07;0.40;;;0.40;;
60292;SDS011;52402;52.670;6.750;2023-08-17T13:31:34;0.40;;;0.40;;
60292;SDS011;52402;52.670;6.750;2023-08-17T13:33:59;0.40;;;0.40;;
60292;SDS011;52402;52.670;6.750;2023-08-17T13:36:25;0.40;;;0.40;;
60292;SDS011;52402;52.670;6.750;2023-08-17T13:38:51;0.40;;;0.40;;
60292;SDS011;52402;52.670;6.750;2023-08-17T13:41:16;0.40;;;0.40;;
60292;SDS011;52402;52.670;6.750;2023-08-17T13:43:42;0.50;;;0.50;;
60292;SDS011;52402;52.670;6.750;2023-08-17T13:46:08;0.50;;;0.50;;
60292;SDS011;52402;52.670;6.750;2023-08-17T13:48:33;0.47;;;0.47;;
60292;SDS011;52402;52.670;6.750;2023-08-17T13:50:59;0.50;;;0.50;;
60292;SDS011;52402;52.670;6.750;2023-08-17T13:53:24;0.40;;;0.40;;
60292;SDS011;52402;52.670;6.750;2023-08-17T13:55:51;0.50;;;0.50;;
60292;SDS011;52402;52.670;6.750;2023-08-17T13:58:17;0.47;;;0.47;;
60292;SDS011;52402;52.670;6.750;2023-08-17T14:00:43;0.50;;;0.50;;
60292;SDS011;52402;52.670;6.750;2023-08-17T14:03:08;0.50;;;0.50;;
60292;SDS011;52402;52.670;6.750;2023-08-17T14:05:34;0.45;;;0.45;;
60292;SDS011;52402;52.670;6.750;2023-08-17T14:08:00;0.45;;;0.45;;
60292;SDS011;52402;52.670;6.750;2023-08-17T14:10:25;0.40;;;0.40;;
60292;SDS011;52402;52.670;6.750;2023-08-17T14:12:51;0.40;;;0.40;;
60292;SDS011;52402;52.670;6.750;2023-08-17T14:15:17;0.40;;;0.40;;
60292;SDS011;52402;52.670;6.750;2023-08-17T14:17:42;0.40;;;0.40;;
60292;SDS011;52402;52.670;6.750;2023-08-17T14:20:08;0.40;;;0.40;;
60292;SDS011;52402;52.670;6.750;2023-08-17T14:22:34;0.52;;;0.52;;
60292;SDS011;52402;52.670;6.750;2023-08-17T14:25:00;0.40;;;0.40;;
60292;SDS011;52402;52.670;6.750;2023-08-17T14:27:25;0.50;;;0.50;;
60292;SDS011;52402;52.670;6.750;2023-08-17T14:29:51;0.40;;;0.40;;
60292;SDS011;52402;52.670;6.750;2023-08-17T14:32:17;0.40;;;0.40;;
60292;SDS011;52402;52.670;6.750;2023-08-17T14:34:43;0.40;;;0.40;;
60292;SDS011;52402;52.670;6.750;2023-08-17T14:37:09;0.40;;;0.40;;
60292;SDS011;52402;52.670;6.750;2023-08-17T14:39:34;0.50;;;0.50;;
60292;SDS011;52402;52.670;6.750;2023-08-17T14:42:00;0.40;;;0.40;;
60292;SDS011;52402;52.670;6.750;2023-08-17T14:44:26;0.50;;;0.50;;
60292;SDS011;52402;52.670;6.750;2023-08-17T14:46:51;0.50;;;0.50;;
60292;SDS011;52402;52.670;6.750;2023-08-17T14:49:17;0.40;;;0.40;;
60292;SDS011;52402;52.670;6.750;2023-08-17T14:51:43;0.40;;;0.40;;
60292;SDS011;52402;52.670;6.750;2023-08-17T14:54:09;0.40;;;0.40;;
60292;SDS011;52402;52.670;6.750;2023-08-17T14:56:35;0.60;;;0.60;;
60292;SDS011;52402;52.670;6.750;2023-08-17T14:59:00;0.50;;;0.50;;